sensor_id;sensor_type;location;lat;lon;timestamp;temperature;humidity
10583;DHT22;33679;51.218;6.786;2023-07-29T00:00:08;24.30;99.90
10583;DHT22;33679;51.218;6.786;2023-07-29T00:02:49;24.30;99.90
10583;DHT22;33679;51.218;6.786;2023-07-29T00:05:27;24.30;99.90
10583;DHT22;33679;51.218;6.786;2023-07-29T00:08:09;24.30;99.90
10583;DHT22;33679;51.218;6.786;2023-07-29T00:10:49;24.30;99.90
10583;DHT22;33679;51.218;6.786;2023-07-29T00:13:23;24.30;99.90
10583;DHT22;33679;51.218;6.786;2023-07-29T00:16:00;24.30;99.90
10583;DHT22;33679;51.218;6.786;2023-07-29T00:18:36;24.30;99.90
10583;DHT22;33679;51.218;6.786;2023-07-29T00:21:14;24.30;99.90
10583;DHT22;33679;51.218;6.786;2023-07-29T00:23:47;24.30;99.90
10583;DHT22;33679;51.218;6.786;2023-07-29T00:26:21;24.30;99.90
10583;DHT22;33679;51.218;6.786;2023-07-29T00:28:55;24.20;99.90
10583;DHT22;33679;51.218;6.786;2023-07-29T00:31:32;24.20;99.90
10583;DHT22;33679;51.218;6.786;2023-07-29T00:34:07;24.20;99.90
10583;DHT22;33679;51.218;6.786;2023-07-29T00:36:47;24.10;99.90
10583;DHT22;33679;51.218;6.786;2023-07-29T00:39:24;24.10;99.90
10583;DHT22;33679;51.218;6.786;2023-07-29T00:41:58;24.20;99.90
10583;DHT22;33679;51.218;6.786;2023-07-29T00:44:31;24.20;99.90
10583;DHT22;33679;51.218;6.786;2023-07-29T00:47:06;24.20;99.90
10583;DHT22;33679;51.218;6.786;2023-07-29T00:49:45;24.10;99.90
10583;DHT22;33679;51.218;6.786;2023-07-29T00:52:21;24.10;99.90
10583;DHT22;33679;51.218;6.786;2023-07-29T00:54:56;24.00;99.90
10583;DHT22;33679;51.218;6.786;2023-07-29T00:57:36;24.10;99.90
10583;DHT22;33679;51.218;6.786;2023-07-29T01:00:10;24.10;99.90
10583;DHT22;33679;51.218;6.786;2023-07-29T01:02:47;24.00;99.90
10583;DHT22;33679;51.218;6.786;2023-07-29T01:05:32;23.90;99.90
10583;DHT22;33679;51.218;6.786;2023-07-29T01:08:09;23.90;99.90
10583;DHT22;33679;51.218;6.786;2023-07-29T01:11:03;24.00;99.90
10583;DHT22;33679;51.218;6.786;2023-07-29T01:13:51;24.00;99.90
10583;DHT22;33679;51.218;6.786;2023-07-29T01:16:31;24.00;99.90
10583;DHT22;33679;51.218;6.786;2023-07-29T01:19:15;24.00;99.90
10583;DHT22;33679;51.218;6.786;2023-07-29T01:21:56;24.00;99.90
10583;DHT22;33679;51.218;6.786;2023-07-29T01:24:32;23.90;99.90
10583;DHT22;33679;51.218;6.786;2023-07-29T01:27:08;24.00;99.90
10583;DHT22;33679;51.218;6.786;2023-07-29T01:29:49;24.00;99.90
10583;DHT22;33679;51.218;6.786;2023-07-29T01:32:29;24.00;99.90
10583;DHT22;33679;51.218;6.786;2023-07-29T01:35:17;23.90;99.90
10583;DHT22;33679;51.218;6.786;2023-07-29T01:37:58;23.90;99.90
10583;DHT22;33679;51.218;6.786;2023-07-29T01:40:44;23.80;99.90
10583;DHT22;33679;51.218;6.786;2023-07-29T01:43:16;23.90;99.90
10583;DHT22;33679;51.218;6.786;2023-07-29T01:45:57;23.90;99.90
10583;DHT22;33679;51.218;6.786;2023-07-29T01:48:30;23.80;99.90
10583;DHT22;33679;51.218;6.786;2023-07-29T01:51:03;23.80;99.90
10583;DHT22;33679;51.218;6.786;2023-07-29T01:53:35;23.80;99.90
10583;DHT22;33679;51.218;6.786;2023-07-29T01:56:14;23.70;99.90
10583;DHT22;33679;51.218;6.786;2023-07-29T01:58:55;23.70;99.90
10583;DHT22;33679;51.218;6.786;2023-07-29T02:01:27;23.80;99.90
10583;DHT22;33679;51.218;6.786;2023-07-29T02:04:00;23.80;99.90
10583;DHT22;33679;51.218;6.786;2023-07-29T02:06:34;23.80;99.90
10583;DHT22;33679;51.218;6.786;2023-07-29T02:09:06;23.70;99.90
10583;DHT22;33679;51.218;6.786;2023-07-29T02:11:40;23.70;99.90
10583;DHT22;33679;51.218;6.786;2023-07-29T02:14:12;23.60;99.90
10583;DHT22;33679;51.218;6.786;2023-07-29T02:16:44;23.60;99.90
10583;DHT22;33679;51.218;6.786;2023-07-29T02:19:17;23.50;99.90
10583;DHT22;33679;51.218;6.786;2023-07-29T02:21:49;23.50;99.90
10583;DHT22;33679;51.218;6.786;2023-07-29T02:24:24;23.40;99.90
10583;DHT22;33679;51.218;6.786;2023-07-29T02:26:58;23.40;99.90
10583;DHT22;33679;51.218;6.786;2023-07-29T02:29:31;23.40;99.90
10583;DHT22;33679;51.218;6.786;2023-07-29T02:32:04;23.40;99.90
10583;DHT22;33679;51.218;6.786;2023-07-29T02:34:36;23.40;99.90
10583;DHT22;33679;51.218;6.786;2023-07-29T02:37:09;23.40;99.90
10583;DHT22;33679;51.218;6.786;2023-07-29T02:39:41;23.40;99.90
10583;DHT22;33679;51.218;6.786;2023-07-29T02:42:15;23.40;99.90
10583;DHT22;33679;51.218;6.786;2023-07-29T02:44:48;23.40;99.90
10583;DHT22;33679;51.218;6.786;2023-07-29T02:47:20;23.40;99.90
10583;DHT22;33679;51.218;6.786;2023-07-29T02:49:52;23.40;99.90
10583;DHT22;33679;51.218;6.786;2023-07-29T02:52:24;23.30;99.90
10583;DHT22;33679;51.218;6.786;2023-07-29T02:54:58;23.30;99.90
10583;DHT22;33679;51.218;6.786;2023-07-29T02:57:32;23.30;99.90
10583;DHT22;33679;51.218;6.786;2023-07-29T03:00:06;23.30;99.90
10583;DHT22;33679;51.218;6.786;2023-07-29T03:02:39;23.30;99.90
10583;DHT22;33679;51.218;6.786;2023-07-29T03:05:13;23.30;99.90
10583;DHT22;33679;51.218;6.786;2023-07-29T03:07:46;23.30;99.90
10583;DHT22;33679;51.218;6.786;2023-07-29T03:10:18;23.30;99.90
10583;DHT22;33679;51.218;6.786;2023-07-29T03:12:53;23.30;99.90
10583;DHT22;33679;51.218;6.786;2023-07-29T03:15:26;23.30;99.90
10583;DHT22;33679;51.218;6.786;2023-07-29T03:18:01;23.20;99.90
10583;DHT22;33679;51.218;6.786;2023-07-29T03:20:35;23.20;99.90
10583;DHT22;33679;51.218;6.786;2023-07-29T03:23:07;23.20;99.90
10583;DHT22;33679;51.218;6.786;2023-07-29T03:25:40;23.20;99.90
10583;DHT22;33679;51.218;6.786;2023-07-29T03:28:13;23.20;99.90
10583;DHT22;33679;51.218;6.786;2023-07-29T03:30:46;23.20;99.90
10583;DHT22;33679;51.218;6.786;2023-07-29T03:33:18;23.20;99.90
10583;DHT22;33679;51.218;6.786;2023-07-29T03:35:53;23.20;99.90
10583;DHT22;33679;51.218;6.786;2023-07-29T03:38:25;23.20;99.90
10583;DHT22;33679;51.218;6.786;2023-07-29T03:40:58;23.20;99.90
10583;DHT22;33679;51.218;6.786;2023-07-29T03:43:32;23.20;99.90
10583;DHT22;33679;51.218;6.786;2023-07-29T03:46:07;23.20;99.90
10583;DHT22;33679;51.218;6.786;2023-07-29T03:48:53;23.20;99.90
10583;DHT22;33679;51.218;6.786;2023-07-29T03:51:25;23.20;99.90
10583;DHT22;33679;51.218;6.786;2023-07-29T03:53:57;23.20;99.90
10583;DHT22;33679;51.218;6.786;2023-07-29T03:56:30;23.20;99.90
10583;DHT22;33679;51.218;6.786;2023-07-29T03:59:04;23.10;99.90
10583;DHT22;33679;51.218;6.786;2023-07-29T04:01:38;23.20;99.90
10583;DHT22;33679;51.218;6.786;2023-07-29T04:04:10;23.10;99.90
10583;DHT22;33679;51.218;6.786;2023-07-29T04:06:42;23.10;99.90
10583;DHT22;33679;51.218;6.786;2023-07-29T04:09:15;23.10;99.90
10583;DHT22;33679;51.218;6.786;2023-07-29T04:11:47;23.00;99.90
10583;DHT22;33679;51.218;6.786;2023-07-29T04:14:26;23.00;99.90
10583;DHT22;33679;51.218;6.786;2023-07-29T04:17:00;23.00;99.90
10583;DHT22;33679;51.218;6.786;2023-07-29T04:19:32;23.00;99.90
10583;DHT22;33679;51.218;6.786;2023-07-29T04:22:05;23.00;99.90
10583;DHT22;33679;51.218;6.786;2023-07-29T04:24:38;22.90;99.90
10583;DHT22;33679;51.218;6.786;2023-07-29T04:27:10;22.90;99.90
10583;DHT22;33679;51.218;6.786;2023-07-29T04:29:45;22.90;99.90
10583;DHT22;33679;51.218;6.786;2023-07-29T04:32:17;22.90;99.90
10583;DHT22;33679;51.218;6.786;2023-07-29T04:34:50;22.90;99.90
10583;DHT22;33679;51.218;6.786;2023-07-29T04:37:22;22.90;99.90
10583;DHT22;33679;51.218;6.786;2023-07-29T04:39:54;22.90;99.90
10583;DHT22;33679;51.218;6.786;2023-07-29T04:42:27;22.90;99.90
10583;DHT22;33679;51.218;6.786;2023-07-29T04:45:01;22.80;99.90
10583;DHT22;33679;51.218;6.786;2023-07-29T04:47:37;22.80;99.90
10583;DHT22;33679;51.218;6.786;2023-07-29T04:50:09;22.80;99.90
10583;DHT22;33679;51.218;6.786;2023-07-29T04:52:42;22.80;99.90
10583;DHT22;33679;51.218;6.786;2023-07-29T04:55:21;22.80;99.90
10583;DHT22;33679;51.218;6.786;2023-07-29T04:58:06;22.80;99.90
10583;DHT22;33679;51.218;6.786;2023-07-29T05:00:40;22.80;99.90
10583;DHT22;33679;51.218;6.786;2023-07-29T05:03:15;22.80;99.90
10583;DHT22;33679;51.218;6.786;2023-07-29T05:05:47;22.90;99.90
10583;DHT22;33679;51.218;6.786;2023-07-29T05:08:20;22.80;99.90
10583;DHT22;33679;51.218;6.786;2023-07-29T05:10:56;22.80;99.90
10583;DHT22;33679;51.218;6.786;2023-07-29T05:13:28;22.80;99.90
10583;DHT22;33679;51.218;6.786;2023-07-29T05:16:02;22.90;99.90
10583;DHT22;33679;51.218;6.786;2023-07-29T05:18:35;22.90;99.90
10583;DHT22;33679;51.218;6.786;2023-07-29T05:21:08;22.90;99.90
10583;DHT22;33679;51.218;6.786;2023-07-29T05:23:45;22.90;99.90
10583;DHT22;33679;51.218;6.786;2023-07-29T05:26:20;22.90;99.90
10583;DHT22;33679;51.218;6.786;2023-07-29T05:28:55;22.80;99.90
10583;DHT22;33679;51.218;6.786;2023-07-29T05:31:28;22.80;99.90
10583;DHT22;33679;51.218;6.786;2023-07-29T05:34:00;22.80;99.90
10583;DHT22;33679;51.218;6.786;2023-07-29T05:36:33;22.80;99.90
10583;DHT22;33679;51.218;6.786;2023-07-29T05:39:06;22.90;99.90
10583;DHT22;33679;51.218;6.786;2023-07-29T05:41:38;22.90;99.90
10583;DHT22;33679;51.218;6.786;2023-07-29T05:44:11;22.90;99.90
10583;DHT22;33679;51.218;6.786;2023-07-29T05:46:45;22.80;99.90
10583;DHT22;33679;51.218;6.786;2023-07-29T05:49:18;22.90;99.90
10583;DHT22;33679;51.218;6.786;2023-07-29T05:51:51;22.90;99.90
10583;DHT22;33679;51.218;6.786;2023-07-29T05:54:24;22.80;99.90
10583;DHT22;33679;51.218;6.786;2023-07-29T05:56:59;22.80;99.90
10583;DHT22;33679;51.218;6.786;2023-07-29T05:59:31;22.80;99.90
10583;DHT22;33679;51.218;6.786;2023-07-29T06:02:05;22.80;99.90
10583;DHT22;33679;51.218;6.786;2023-07-29T06:04:38;22.70;99.90
10583;DHT22;33679;51.218;6.786;2023-07-29T06:07:12;22.70;99.90
10583;DHT22;33679;51.218;6.786;2023-07-29T06:09:46;22.70;99.90
10583;DHT22;33679;51.218;6.786;2023-07-29T06:12:18;22.70;99.90
10583;DHT22;33679;51.218;6.786;2023-07-29T06:14:51;22.70;99.90
10583;DHT22;33679;51.218;6.786;2023-07-29T06:17:25;22.70;99.90
10583;DHT22;33679;51.218;6.786;2023-07-29T06:19:59;22.70;99.90
10583;DHT22;33679;51.218;6.786;2023-07-29T06:22:31;22.70;99.90
10583;DHT22;33679;51.218;6.786;2023-07-29T06:25:04;22.70;99.90
10583;DHT22;33679;51.218;6.786;2023-07-29T06:27:37;22.70;99.90
10583;DHT22;33679;51.218;6.786;2023-07-29T06:30:10;22.70;99.90
10583;DHT22;33679;51.218;6.786;2023-07-29T06:32:44;22.80;99.90
10583;DHT22;33679;51.218;6.786;2023-07-29T06:35:16;22.80;99.90
10583;DHT22;33679;51.218;6.786;2023-07-29T06:37:48;22.90;99.90
10583;DHT22;33679;51.218;6.786;2023-07-29T06:40:21;22.90;99.90
10583;DHT22;33679;51.218;6.786;2023-07-29T06:42:55;23.00;99.90
10583;DHT22;33679;51.218;6.786;2023-07-29T06:45:28;23.00;99.90
10583;DHT22;33679;51.218;6.786;2023-07-29T06:48:02;23.10;99.90
10583;DHT22;33679;51.218;6.786;2023-07-29T06:50:35;23.10;99.90
10583;DHT22;33679;51.218;6.786;2023-07-29T06:53:07;23.10;99.90
10583;DHT22;33679;51.218;6.786;2023-07-29T06:55:39;23.00;99.90
10583;DHT22;33679;51.218;6.786;2023-07-29T06:58:15;23.00;99.90
10583;DHT22;33679;51.218;6.786;2023-07-29T07:00:48;23.10;99.90
10583;DHT22;33679;51.218;6.786;2023-07-29T07:03:22;23.10;99.90
10583;DHT22;33679;51.218;6.786;2023-07-29T07:05:55;23.00;99.90
10583;DHT22;33679;51.218;6.786;2023-07-29T07:08:28;23.10;99.90
10583;DHT22;33679;51.218;6.786;2023-07-29T07:11:02;23.20;99.90
10583;DHT22;33679;51.218;6.786;2023-07-29T07:13:34;23.20;99.90
10583;DHT22;33679;51.218;6.786;2023-07-29T07:16:07;23.20;99.90
10583;DHT22;33679;51.218;6.786;2023-07-29T07:18:41;23.30;99.90
10583;DHT22;33679;51.218;6.786;2023-07-29T07:21:13;23.30;99.90
10583;DHT22;33679;51.218;6.786;2023-07-29T07:23:46;23.30;99.90
10583;DHT22;33679;51.218;6.786;2023-07-29T07:26:18;23.40;99.90
10583;DHT22;33679;51.218;6.786;2023-07-29T07:28:53;23.60;99.90
10583;DHT22;33679;51.218;6.786;2023-07-29T07:31:32;23.70;99.90
10583;DHT22;33679;51.218;6.786;2023-07-29T07:34:06;23.80;99.90
10583;DHT22;33679;51.218;6.786;2023-07-29T07:36:41;23.90;99.90
10583;DHT22;33679;51.218;6.786;2023-07-29T07:39:13;23.90;99.90
10583;DHT22;33679;51.218;6.786;2023-07-29T07:41:46;24.00;99.90
10583;DHT22;33679;51.218;6.786;2023-07-29T07:44:18;24.00;99.90
10583;DHT22;33679;51.218;6.786;2023-07-29T07:46:50;24.00;99.90
10583;DHT22;33679;51.218;6.786;2023-07-29T07:49:24;24.10;99.90
10583;DHT22;33679;51.218;6.786;2023-07-29T07:52:00;24.00;99.90
10583;DHT22;33679;51.218;6.786;2023-07-29T07:54:33;24.00;99.90
10583;DHT22;33679;51.218;6.786;2023-07-29T07:57:08;23.90;99.90
10583;DHT22;33679;51.218;6.786;2023-07-29T07:59:43;23.90;99.90
10583;DHT22;33679;51.218;6.786;2023-07-29T08:02:15;23.80;99.90
10583;DHT22;33679;51.218;6.786;2023-07-29T08:04:48;23.80;99.90
10583;DHT22;33679;51.218;6.786;2023-07-29T08:07:21;23.80;99.90
10583;DHT22;33679;51.218;6.786;2023-07-29T08:09:54;23.80;99.90
10583;DHT22;33679;51.218;6.786;2023-07-29T08:12:29;23.80;99.90
10583;DHT22;33679;51.218;6.786;2023-07-29T08:15:06;23.70;99.90
10583;DHT22;33679;51.218;6.786;2023-07-29T08:17:38;23.80;99.90
10583;DHT22;33679;51.218;6.786;2023-07-29T08:20:18;23.90;99.90
10583;DHT22;33679;51.218;6.786;2023-07-29T08:22:52;23.90;99.90
10583;DHT22;33679;51.218;6.786;2023-07-29T08:25:24;24.00;99.90
10583;DHT22;33679;51.218;6.786;2023-07-29T08:27:57;24.00;99.90
10583;DHT22;33679;51.218;6.786;2023-07-29T08:30:32;24.10;99.90
10583;DHT22;33679;51.218;6.786;2023-07-29T08:33:04;24.20;99.90
10583;DHT22;33679;51.218;6.786;2023-07-29T08:35:38;24.30;99.90
10583;DHT22;33679;51.218;6.786;2023-07-29T08:38:10;24.40;99.90
10583;DHT22;33679;51.218;6.786;2023-07-29T08:40:58;24.40;99.90
10583;DHT22;33679;51.218;6.786;2023-07-29T08:43:32;24.40;99.90
10583;DHT22;33679;51.218;6.786;2023-07-29T08:46:07;24.40;99.90
10583;DHT22;33679;51.218;6.786;2023-07-29T08:48:43;24.40;99.90
10583;DHT22;33679;51.218;6.786;2023-07-29T08:51:18;24.40;99.90
10583;DHT22;33679;51.218;6.786;2023-07-29T08:53:51;24.40;99.90
10583;DHT22;33679;51.218;6.786;2023-07-29T08:56:26;24.40;99.90
10583;DHT22;33679;51.218;6.786;2023-07-29T08:58:59;24.40;99.90
10583;DHT22;33679;51.218;6.786;2023-07-29T09:01:33;24.40;99.90
10583;DHT22;33679;51.218;6.786;2023-07-29T09:04:06;24.50;99.90
10583;DHT22;33679;51.218;6.786;2023-07-29T09:06:40;24.40;99.90
10583;DHT22;33679;51.218;6.786;2023-07-29T09:09:14;24.50;99.90
10583;DHT22;33679;51.218;6.786;2023-07-29T09:11:47;24.60;99.90
10583;DHT22;33679;51.218;6.786;2023-07-29T09:14:23;24.70;99.90
10583;DHT22;33679;51.218;6.786;2023-07-29T09:16:57;24.80;99.90
10583;DHT22;33679;51.218;6.786;2023-07-29T09:19:33;24.70;99.90
10583;DHT22;33679;51.218;6.786;2023-07-29T09:22:18;24.90;99.90
10583;DHT22;33679;51.218;6.786;2023-07-29T09:24:51;24.90;99.90
10583;DHT22;33679;51.218;6.786;2023-07-29T09:27:24;24.90;99.90
10583;DHT22;33679;51.218;6.786;2023-07-29T09:29:58;24.90;99.90
10583;DHT22;33679;51.218;6.786;2023-07-29T09:32:30;25.00;99.90
10583;DHT22;33679;51.218;6.786;2023-07-29T09:35:03;25.00;99.90
10583;DHT22;33679;51.218;6.786;2023-07-29T09:37:43;25.10;99.90
10583;DHT22;33679;51.218;6.786;2023-07-29T09:40:16;25.10;99.90
10583;DHT22;33679;51.218;6.786;2023-07-29T09:42:49;25.10;99.90
10583;DHT22;33679;51.218;6.786;2023-07-29T09:45:24;25.00;99.90
10583;DHT22;33679;51.218;6.786;2023-07-29T09:47:59;24.90;99.90
10583;DHT22;33679;51.218;6.786;2023-07-29T09:50:31;24.90;99.90
10583;DHT22;33679;51.218;6.786;2023-07-29T09:53:07;24.80;99.90
10583;DHT22;33679;51.218;6.786;2023-07-29T09:55:39;24.90;99.90
10583;DHT22;33679;51.218;6.786;2023-07-29T09:58:13;24.90;99.90
10583;DHT22;33679;51.218;6.786;2023-07-29T10:00:45;25.00;99.90
10583;DHT22;33679;51.218;6.786;2023-07-29T10:03:19;25.00;99.90
10583;DHT22;33679;51.218;6.786;2023-07-29T10:06:00;25.10;99.90
10583;DHT22;33679;51.218;6.786;2023-07-29T10:08:40;25.10;99.90
10583;DHT22;33679;51.218;6.786;2023-07-29T10:11:13;25.10;99.90
10583;DHT22;33679;51.218;6.786;2023-07-29T10:13:46;25.20;99.90
10583;DHT22;33679;51.218;6.786;2023-07-29T10:16:19;25.20;99.90
10583;DHT22;33679;51.218;6.786;2023-07-29T10:18:57;25.20;99.90
10583;DHT22;33679;51.218;6.786;2023-07-29T10:21:30;25.30;99.90
10583;DHT22;33679;51.218;6.786;2023-07-29T10:24:08;25.30;99.90
10583;DHT22;33679;51.218;6.786;2023-07-29T10:26:42;25.30;99.90
10583;DHT22;33679;51.218;6.786;2023-07-29T10:29:19;25.40;99.90
10583;DHT22;33679;51.218;6.786;2023-07-29T10:31:55;25.50;99.90
10583;DHT22;33679;51.218;6.786;2023-07-29T10:34:31;25.60;99.90
10583;DHT22;33679;51.218;6.786;2023-07-29T10:37:05;25.70;99.90
10583;DHT22;33679;51.218;6.786;2023-07-29T10:39:52;25.80;99.90
10583;DHT22;33679;51.218;6.786;2023-07-29T10:42:25;25.90;99.90
10583;DHT22;33679;51.218;6.786;2023-07-29T10:44:58;26.00;99.90
10583;DHT22;33679;51.218;6.786;2023-07-29T10:47:32;26.00;99.90
10583;DHT22;33679;51.218;6.786;2023-07-29T10:50:17;26.10;99.90
10583;DHT22;33679;51.218;6.786;2023-07-29T10:52:51;26.10;99.90
10583;DHT22;33679;51.218;6.786;2023-07-29T10:55:26;26.10;99.90
10583;DHT22;33679;51.218;6.786;2023-07-29T10:58:12;26.30;99.90
10583;DHT22;33679;51.218;6.786;2023-07-29T11:00:45;26.40;99.90
10583;DHT22;33679;51.218;6.786;2023-07-29T11:03:18;26.50;99.90
10583;DHT22;33679;51.218;6.786;2023-07-29T11:05:51;26.60;99.90
10583;DHT22;33679;51.218;6.786;2023-07-29T11:08:28;26.80;99.90
10583;DHT22;33679;51.218;6.786;2023-07-29T11:11:06;26.90;99.90
10583;DHT22;33679;51.218;6.786;2023-07-29T11:13:41;27.00;99.90
10583;DHT22;33679;51.218;6.786;2023-07-29T11:16:16;27.10;99.90
10583;DHT22;33679;51.218;6.786;2023-07-29T11:18:59;27.20;99.90
10583;DHT22;33679;51.218;6.786;2023-07-29T11:21:33;27.50;99.90
10583;DHT22;33679;51.218;6.786;2023-07-29T11:24:11;27.40;99.90
10583;DHT22;33679;51.218;6.786;2023-07-29T11:26:50;27.30;99.90
10583;DHT22;33679;51.218;6.786;2023-07-29T11:29:23;27.20;99.90
10583;DHT22;33679;51.218;6.786;2023-07-29T11:31:56;27.10;99.90
10583;DHT22;33679;51.218;6.786;2023-07-29T11:34:31;27.00;99.90
10583;DHT22;33679;51.218;6.786;2023-07-29T11:37:10;26.80;99.90
10583;DHT22;33679;51.218;6.786;2023-07-29T11:39:44;26.70;99.90
10583;DHT22;33679;51.218;6.786;2023-07-29T11:42:20;26.60;99.90
10583;DHT22;33679;51.218;6.786;2023-07-29T11:44:52;26.60;99.90
10583;DHT22;33679;51.218;6.786;2023-07-29T11:47:26;26.60;99.90
10583;DHT22;33679;51.218;6.786;2023-07-29T11:49:59;26.60;99.90
10583;DHT22;33679;51.218;6.786;2023-07-29T11:52:32;26.70;99.90
10583;DHT22;33679;51.218;6.786;2023-07-29T11:55:05;26.60;99.90
10583;DHT22;33679;51.218;6.786;2023-07-29T11:57:39;26.60;99.90
10583;DHT22;33679;51.218;6.786;2023-07-29T12:00:13;26.60;99.90
10583;DHT22;33679;51.218;6.786;2023-07-29T12:02:49;26.60;99.90
10583;DHT22;33679;51.218;6.786;2023-07-29T12:05:25;26.70;99.90
10583;DHT22;33679;51.218;6.786;2023-07-29T12:07:57;26.70;99.90
10583;DHT22;33679;51.218;6.786;2023-07-29T12:10:30;26.80;99.90
10583;DHT22;33679;51.218;6.786;2023-07-29T12:13:05;26.80;99.90
10583;DHT22;33679;51.218;6.786;2023-07-29T12:15:39;26.80;99.90
10583;DHT22;33679;51.218;6.786;2023-07-29T12:18:12;26.70;99.90
10583;DHT22;33679;51.218;6.786;2023-07-29T12:20:44;26.70;99.90
10583;DHT22;33679;51.218;6.786;2023-07-29T12:23:24;26.70;99.90
10583;DHT22;33679;51.218;6.786;2023-07-29T12:25:58;26.80;99.90
10583;DHT22;33679;51.218;6.786;2023-07-29T12:28:34;26.80;99.90
10583;DHT22;33679;51.218;6.786;2023-07-29T12:31:07;26.80;99.90
10583;DHT22;33679;51.218;6.786;2023-07-29T12:33:40;26.80;99.90
10583;DHT22;33679;51.218;6.786;2023-07-29T12:36:13;26.80;99.90
10583;DHT22;33679;51.218;6.786;2023-07-29T12:38:45;26.80;99.90
10583;DHT22;33679;51.218;6.786;2023-07-29T12:41:17;26.80;99.90
10583;DHT22;33679;51.218;6.786;2023-07-29T12:43:51;26.80;99.90
10583;DHT22;33679;51.218;6.786;2023-07-29T12:46:29;26.80;99.90
10583;DHT22;33679;51.218;6.786;2023-07-29T12:49:01;26.80;99.90
10583;DHT22;33679;51.218;6.786;2023-07-29T12:51:33;26.80;99.90
10583;DHT22;33679;51.218;6.786;2023-07-29T12:54:06;26.80;99.90
10583;DHT22;33679;51.218;6.786;2023-07-29T12:56:39;26.90;99.90
10583;DHT22;33679;51.218;6.786;2023-07-29T12:59:12;26.90;99.90
10583;DHT22;33679;51.218;6.786;2023-07-29T13:01:45;26.80;99.90
10583;DHT22;33679;51.218;6.786;2023-07-29T13:04:17;26.90;99.90
10583;DHT22;33679;51.218;6.786;2023-07-29T13:06:52;26.90;99.90
10583;DHT22;33679;51.218;6.786;2023-07-29T13:09:24;27.00;99.90
10583;DHT22;33679;51.218;6.786;2023-07-29T13:11:56;27.00;99.90
10583;DHT22;33679;51.218;6.786;2023-07-29T13:14:33;27.10;99.90
10583;DHT22;33679;51.218;6.786;2023-07-29T13:17:09;27.10;99.90
10583;DHT22;33679;51.218;6.786;2023-07-29T13:19:41;27.00;99.90
10583;DHT22;33679;51.218;6.786;2023-07-29T13:22:16;27.00;99.90
10583;DHT22;33679;51.218;6.786;2023-07-29T13:24:48;27.00;99.90
10583;DHT22;33679;51.218;6.786;2023-07-29T13:27:21;27.00;99.90
10583;DHT22;33679;51.218;6.786;2023-07-29T13:29:56;27.00;99.90
10583;DHT22;33679;51.218;6.786;2023-07-29T13:32:28;26.90;99.90
10583;DHT22;33679;51.218;6.786;2023-07-29T13:35:01;27.00;99.90
10583;DHT22;33679;51.218;6.786;2023-07-29T13:37:33;27.00;99.90
10583;DHT22;33679;51.218;6.786;2023-07-29T13:40:08;27.00;99.90
10583;DHT22;33679;51.218;6.786;2023-07-29T13:42:40;26.90;99.90
10583;DHT22;33679;51.218;6.786;2023-07-29T13:45:14;26.90;99.90
10583;DHT22;33679;51.218;6.786;2023-07-29T13:47:48;26.80;99.90
10583;DHT22;33679;51.218;6.786;2023-07-29T13:50:24;26.80;99.90
10583;DHT22;33679;51.218;6.786;2023-07-29T13:52:56;26.80;99.90
10583;DHT22;33679;51.218;6.786;2023-07-29T13:55:28;26.90;99.90
10583;DHT22;33679;51.218;6.786;2023-07-29T13:58:01;26.80;99.90
10583;DHT22;33679;51.218;6.786;2023-07-29T14:00:35;26.80;99.90
10583;DHT22;33679;51.218;6.786;2023-07-29T14:03:07;26.80;99.90
10583;DHT22;33679;51.218;6.786;2023-07-29T14:05:39;26.70;99.90
10583;DHT22;33679;51.218;6.786;2023-07-29T14:08:11;26.60;99.90
10583;DHT22;33679;51.218;6.786;2023-07-29T14:10:44;26.60;99.90
10583;DHT22;33679;51.218;6.786;2023-07-29T14:13:16;26.60;99.90
10583;DHT22;33679;51.218;6.786;2023-07-29T14:15:50;26.50;99.90
10583;DHT22;33679;51.218;6.786;2023-07-29T14:18:22;26.50;99.90
10583;DHT22;33679;51.218;6.786;2023-07-29T14:20:54;26.60;99.90
10583;DHT22;33679;51.218;6.786;2023-07-29T14:23:26;26.60;99.90
10583;DHT22;33679;51.218;6.786;2023-07-29T14:25:59;26.60;99.90
10583;DHT22;33679;51.218;6.786;2023-07-29T14:28:31;26.70;99.90
10583;DHT22;33679;51.218;6.786;2023-07-29T14:31:05;26.70;99.90
10583;DHT22;33679;51.218;6.786;2023-07-29T14:33:37;26.80;99.90
10583;DHT22;33679;51.218;6.786;2023-07-29T14:36:10;26.80;99.90
10583;DHT22;33679;51.218;6.786;2023-07-29T14:38:42;26.80;99.90
10583;DHT22;33679;51.218;6.786;2023-07-29T14:41:14;26.90;99.90
10583;DHT22;33679;51.218;6.786;2023-07-29T14:43:47;26.80;99.90
10583;DHT22;33679;51.218;6.786;2023-07-29T14:46:20;26.70;99.90
10583;DHT22;33679;51.218;6.786;2023-07-29T14:48:53;26.60;99.90
10583;DHT22;33679;51.218;6.786;2023-07-29T14:51:28;26.60;99.90
10583;DHT22;33679;51.218;6.786;2023-07-29T14:54:00;26.50;99.90
10583;DHT22;33679;51.218;6.786;2023-07-29T14:56:32;26.40;99.90
10583;DHT22;33679;51.218;6.786;2023-07-29T14:59:04;26.30;99.90
10583;DHT22;33679;51.218;6.786;2023-07-29T15:01:38;26.30;99.90
10583;DHT22;33679;51.218;6.786;2023-07-29T15:04:12;26.20;99.90
10583;DHT22;33679;51.218;6.786;2023-07-29T15:06:46;26.20;99.90
10583;DHT22;33679;51.218;6.786;2023-07-29T15:09:19;26.20;99.90
10583;DHT22;33679;51.218;6.786;2023-07-29T15:11:51;26.20;99.90
10583;DHT22;33679;51.218;6.786;2023-07-29T15:14:24;26.20;99.90
10583;DHT22;33679;51.218;6.786;2023-07-29T15:16:58;26.20;99.90
10583;DHT22;33679;51.218;6.786;2023-07-29T15:19:30;26.30;99.90
10583;DHT22;33679;51.218;6.786;2023-07-29T15:22:02;26.40;99.90
10583;DHT22;33679;51.218;6.786;2023-07-29T15:24:35;26.40;99.90
10583;DHT22;33679;51.218;6.786;2023-07-29T15:27:10;26.50;99.90
10583;DHT22;33679;51.218;6.786;2023-07-29T15:29:42;26.60;99.90
10583;DHT22;33679;51.218;6.786;2023-07-29T15:32:16;26.60;99.90
10583;DHT22;33679;51.218;6.786;2023-07-29T15:34:48;26.60;99.90
10583;DHT22;33679;51.218;6.786;2023-07-29T15:37:21;26.70;99.90
10583;DHT22;33679;51.218;6.786;2023-07-29T15:39:53;26.70;99.90
10583;DHT22;33679;51.218;6.786;2023-07-29T15:42:25;26.70;99.90
10583;DHT22;33679;51.218;6.786;2023-07-29T15:44:57;26.60;99.90
10583;DHT22;33679;51.218;6.786;2023-07-29T15:47:31;26.60;99.90
10583;DHT22;33679;51.218;6.786;2023-07-29T15:50:04;26.60;99.90
10583;DHT22;33679;51.218;6.786;2023-07-29T15:52:37;26.60;99.90
10583;DHT22;33679;51.218;6.786;2023-07-29T15:55:15;26.70;99.90
10583;DHT22;33679;51.218;6.786;2023-07-29T15:57:50;26.70;99.90
10583;DHT22;33679;51.218;6.786;2023-07-29T16:00:22;26.80;99.90
10583;DHT22;33679;51.218;6.786;2023-07-29T16:02:56;26.70;99.90
10583;DHT22;33679;51.218;6.786;2023-07-29T16:05:28;26.70;99.90
10583;DHT22;33679;51.218;6.786;2023-07-29T16:08:01;26.60;99.90
10583;DHT22;33679;51.218;6.786;2023-07-29T16:10:33;26.60;99.90
10583;DHT22;33679;51.218;6.786;2023-07-29T16:13:05;26.50;99.90